createdAt,value
2018-09-13T00:01:03.626Z,7.40
2018-09-13T00:03:37.953Z,7.70
2018-09-13T00:06:12.291Z,7.90
2018-09-13T00:08:46.730Z,7.97
2018-09-13T00:11:21.101Z,8.20
2018-09-13T00:13:55.500Z,8.80
2018-09-13T00:16:29.827Z,8.40
2018-09-13T00:19:04.217Z,8.23
2018-09-13T00:21:38.540Z,8.53
2018-09-13T00:24:12.858Z,8.47
2018-09-13T00:26:47.178Z,7.90
2018-09-13T00:29:21.489Z,8.57
2018-09-13T00:31:55.855Z,8.20
2018-09-13T00:34:30.306Z,8.07
2018-09-13T00:37:04.737Z,8.30
2018-09-13T00:39:39.122Z,8.23
2018-09-13T00:42:13.465Z,8.00
2018-09-13T00:44:47.844Z,8.30
2018-09-13T00:47:22.178Z,8.23
2018-09-13T00:49:56.512Z,8.13
2018-09-13T00:52:30.877Z,7.60
2018-09-13T00:55:05.181Z,8.40
2018-09-13T00:57:39.629Z,8.13
2018-09-13T01:00:13.979Z,8.37
2018-09-13T01:02:48.332Z,8.40
2018-09-13T01:05:22.733Z,8.17
2018-09-13T01:07:57.070Z,8.73
2018-09-13T01:10:31.423Z,9.07
2018-09-13T01:13:05.939Z,8.30
2018-09-13T01:15:40.298Z,8.50
2018-09-13T01:18:14.646Z,8.63
2018-09-13T01:20:49.045Z,8.90
2018-09-13T01:23:23.402Z,9.60
2018-09-13T01:25:57.869Z,9.33
2018-09-13T01:28:32.205Z,8.30
2018-09-13T01:31:06.562Z,8.23
2018-09-13T01:33:40.896Z,8.27
2018-09-13T01:36:15.270Z,8.33
2018-09-13T01:38:49.642Z,8.37
2018-09-13T01:41:24.107Z,9.43
2018-09-13T01:43:58.491Z,9.30
2018-09-13T01:46:33.434Z,9.03
2018-09-13T01:49:07.809Z,8.17
2018-09-13T01:51:42.092Z,7.90
2018-09-13T01:54:16.465Z,9.10
2018-09-13T01:56:51.224Z,8.77
2018-09-13T01:59:25.570Z,8.73
2018-09-13T02:02:00.037Z,8.67
2018-09-13T02:04:34.445Z,8.40
2018-09-13T02:07:08.873Z,8.40
2018-09-13T02:09:43.206Z,8.47
2018-09-13T02:12:17.564Z,8.80
2018-09-13T02:14:52.257Z,8.53
2018-09-13T02:17:26.605Z,9.13
2018-09-13T02:20:00.946Z,8.53
2018-09-13T02:22:35.336Z,8.83
2018-09-13T02:25:09.661Z,9.03
2018-09-13T02:27:44.029Z,9.33
2018-09-13T02:30:18.398Z,8.80
2018-09-13T02:32:53.217Z,8.47
2018-09-13T02:35:27.577Z,8.80
2018-09-13T02:38:02.125Z,8.47
2018-09-13T02:40:36.485Z,8.60
2018-09-13T02:43:10.866Z,8.90
2018-09-13T02:45:45.201Z,8.90
2018-09-13T02:48:19.529Z,8.80
2018-09-13T02:50:54.674Z,8.60
2018-09-13T02:53:29.033Z,8.93
2018-09-13T02:56:03.725Z,9.30
2018-09-13T02:58:38.083Z,8.67
2018-09-13T03:01:12.469Z,9.07
2018-09-13T03:03:46.845Z,9.23
2018-09-13T03:06:21.176Z,8.80
2018-09-13T03:08:55.520Z,8.90
2018-09-13T03:11:29.881Z,8.80
2018-09-13T03:14:04.275Z,9.57
2018-09-13T03:16:39.331Z,9.27
2018-09-13T03:19:13.682Z,9.63
2018-09-13T03:21:48.043Z,9.23
2018-09-13T03:24:22.397Z,9.27
2018-09-13T03:26:57.785Z,9.20
2018-09-13T03:29:32.277Z,9.40
2018-09-13T03:32:06.589Z,9.77
2018-09-13T03:34:44.979Z,9.70
2018-09-13T03:37:20.897Z,9.63
2018-09-13T03:39:55.272Z,9.93
2018-09-13T03:42:29.607Z,9.17
2018-09-13T03:45:04.023Z,9.27
2018-09-13T03:47:38.394Z,9.40
2018-09-13T03:50:12.884Z,8.87
2018-09-13T03:52:47.286Z,10.03
2018-09-13T03:55:21.621Z,9.00
2018-09-13T03:57:55.946Z,9.80
2018-09-13T04:00:30.292Z,9.40
2018-09-13T04:03:04.647Z,9.10
2018-09-13T04:05:39.053Z,8.83
2018-09-13T04:08:13.527Z,9.13
2018-09-13T04:10:47.825Z,8.93
2018-09-13T04:13:22.210Z,9.50
2018-09-13T04:15:56.523Z,9.37
2018-09-13T04:18:30.870Z,8.47
2018-09-13T04:21:05.295Z,9.37
2018-09-13T04:23:39.609Z,9.37
2018-09-13T04:26:13.937Z,9.37
2018-09-13T04:28:48.890Z,9.40
2018-09-13T04:31:23.314Z,9.27
2018-09-13T04:33:57.631Z,9.00
2018-09-13T04:36:31.969Z,8.97
2018-09-13T04:39:08.008Z,9.83
2018-09-13T04:41:42.329Z,9.17
2018-09-13T04:44:16.630Z,9.53
2018-09-13T04:46:51.004Z,9.47
2018-09-13T04:49:25.341Z,9.20
2018-09-13T04:51:59.677Z,9.20
2018-09-13T04:54:34.027Z,9.50
2018-09-13T04:57:08.382Z,9.00
2018-09-13T04:59:42.714Z,9.23
2018-09-13T05:02:17.087Z,9.00
2018-09-13T05:04:51.430Z,8.37
2018-09-13T05:07:25.763Z,9.77
2018-09-13T05:10:00.117Z,9.37
2018-09-13T05:12:34.475Z,9.33
2018-09-13T05:15:08.822Z,9.47
2018-09-13T05:17:43.150Z,9.37
2018-09-13T05:20:23.931Z,9.83
2018-09-13T05:22:58.303Z,10.07
2018-09-13T05:25:32.779Z,9.30
2018-09-13T05:28:07.227Z,9.30
2018-09-13T05:30:41.659Z,9.20
2018-09-13T05:33:16.128Z,9.53
2018-09-13T05:35:50.679Z,8.90
2018-09-13T05:38:26.123Z,9.60
2018-09-13T05:41:00.854Z,9.20
2018-09-13T05:43:35.234Z,9.33
2018-09-13T05:46:09.567Z,9.00
2018-09-13T05:48:43.887Z,9.77
2018-09-13T05:51:18.237Z,9.50
2018-09-13T05:53:53.605Z,9.97
2018-09-13T05:56:28.141Z,10.03
2018-09-13T05:59:02.744Z,9.70
2018-09-13T06:01:37.439Z,9.20
2018-09-13T06:04:12.126Z,9.30
2018-09-13T06:06:46.718Z,9.50
2018-09-13T06:09:21.278Z,9.60
2018-09-13T06:11:56.825Z,9.33
2018-09-13T06:14:31.323Z,8.50
2018-09-13T06:17:06.149Z,8.93
2018-09-13T06:19:41.574Z,9.80
2018-09-13T06:22:16.226Z,9.60
2018-09-13T06:24:50.827Z,9.57
2018-09-13T06:27:25.365Z,10.10
2018-09-13T06:30:00.312Z,9.60
2018-09-13T06:32:34.702Z,9.97
2018-09-13T06:35:09.141Z,10.03
2018-09-13T06:37:43.797Z,9.60
2018-09-13T06:40:18.233Z,10.00
2018-09-13T06:42:54.634Z,10.20
2018-09-13T06:45:29.031Z,9.90
2018-09-13T06:48:03.342Z,9.70
2018-09-13T06:50:37.656Z,8.83
2018-09-13T06:53:12.388Z,9.67
2018-09-13T06:55:46.807Z,10.33
2018-09-13T06:58:21.170Z,9.90
2018-09-13T07:00:55.565Z,9.37
2018-09-13T07:03:29.877Z,9.13
2018-09-13T07:06:04.205Z,9.00
2018-09-13T07:08:38.602Z,8.97
2018-09-13T07:11:12.937Z,8.60
2018-09-13T07:13:47.466Z,9.07
2018-09-13T07:16:21.774Z,8.97
2018-09-13T07:18:56.098Z,8.80
2018-09-13T07:21:30.442Z,9.20
2018-09-13T07:24:05.145Z,8.70
2018-09-13T07:26:39.480Z,8.80
2018-09-13T07:29:13.861Z,9.30
2018-09-13T07:31:48.198Z,9.03
2018-09-13T07:34:22.497Z,8.70
2018-09-13T07:36:56.808Z,9.00
2018-09-13T07:39:31.230Z,8.93
2018-09-13T07:42:05.641Z,9.23
2018-09-13T07:44:40.059Z,9.87
2018-09-13T07:47:14.422Z,9.17
2018-09-13T07:49:49.031Z,9.17
2018-09-13T07:52:23.287Z,8.67
2018-09-13T07:54:57.849Z,8.70
2018-09-13T07:57:33.714Z,8.97
2018-09-13T08:00:08.342Z,8.80
2018-09-13T08:02:42.666Z,8.10
2018-09-13T08:05:17.036Z,10.73
2018-09-13T08:07:52.309Z,9.97
2018-09-13T08:10:27.306Z,9.45
2018-09-13T08:13:01.695Z,8.95
2018-09-13T08:15:37.047Z,10.20
2018-09-13T08:18:12.981Z,9.20
2018-09-13T08:20:48.089Z,8.45
2018-09-13T08:23:22.445Z,8.95
2018-09-13T08:25:56.967Z,8.83
2018-09-13T08:28:31.321Z,9.05
2018-09-13T08:31:05.613Z,9.20
2018-09-13T08:33:40.007Z,8.73
2018-09-13T08:36:15.233Z,8.68
2018-09-13T08:38:49.565Z,9.35
2018-09-13T08:41:25.773Z,7.75
2018-09-13T08:44:00.820Z,8.50
2018-09-13T08:46:35.930Z,8.48
2018-09-13T08:49:11.702Z,8.23
2018-09-13T08:51:49.341Z,7.75
2018-09-13T08:54:23.689Z,7.72
2018-09-13T08:56:59.094Z,8.00
2018-09-13T08:59:34.477Z,8.40
2018-09-13T09:02:09.022Z,8.48
2018-09-13T09:04:45.046Z,8.75
2018-09-13T09:07:19.752Z,8.85
2018-09-13T09:09:54.130Z,8.38
2018-09-13T09:12:28.500Z,8.98
2018-09-13T09:15:02.826Z,8.83
2018-09-13T09:17:37.141Z,9.78
2018-09-13T09:20:11.437Z,8.40
2018-09-13T09:22:45.738Z,8.40
2018-09-13T09:25:20.042Z,8.58
2018-09-13T09:27:54.366Z,8.98
2018-09-13T09:30:28.726Z,8.35
2018-09-13T09:33:03.075Z,8.75
2018-09-13T09:35:37.402Z,8.23
2018-09-13T09:38:11.707Z,8.45
2018-09-13T09:40:46.097Z,7.78
2018-09-13T09:43:20.449Z,8.08
2018-09-13T09:45:54.766Z,7.70
2018-09-13T09:48:29.037Z,8.08
2018-09-13T09:51:03.375Z,7.55
2018-09-13T09:53:37.990Z,7.67
2018-09-13T09:56:12.311Z,8.05
2018-09-13T09:58:46.618Z,7.65
2018-09-13T10:01:26.966Z,8.83
2018-09-13T10:04:01.429Z,8.23
2018-09-13T10:06:35.722Z,8.05
2018-09-13T10:09:10.222Z,8.13
2018-09-13T10:11:44.468Z,7.92
2018-09-13T10:14:18.881Z,7.62
2018-09-13T10:16:58.435Z,7.62
2018-09-13T10:19:37.906Z,7.92
2018-09-13T10:22:17.333Z,6.83
2018-09-13T10:24:56.825Z,7.47
2018-09-13T10:27:36.265Z,7.33
2018-09-13T10:30:15.668Z,7.42
2018-09-13T10:32:55.229Z,7.40
2018-09-13T10:35:34.710Z,7.33
2018-09-13T10:38:14.256Z,7.15
2018-09-13T10:40:53.723Z,7.58
2018-09-13T10:43:33.176Z,7.22
2018-09-13T10:46:40.306Z,8.63
2018-09-13T10:49:19.746Z,7.50
2018-09-13T10:52:03.134Z,8.50
2018-09-13T10:54:41.448Z,7.90
2018-09-13T10:57:21.075Z,8.15
2018-09-13T10:59:55.357Z,7.62
2018-09-13T11:02:29.745Z,8.53
2018-09-13T11:05:04.102Z,8.40
2018-09-13T11:07:38.434Z,7.87
2018-09-13T11:10:12.879Z,8.93
2018-09-13T11:12:50.399Z,7.80
2018-09-13T11:15:33.830Z,7.55
2018-09-13T11:18:08.256Z,7.92
2018-09-13T11:20:42.575Z,8.63
2018-09-13T11:23:17.062Z,8.53
2018-09-13T11:25:51.487Z,7.87
2018-09-13T11:28:25.834Z,7.55
2018-09-13T11:31:02.528Z,7.60
2018-09-13T11:33:36.904Z,7.05
2018-09-13T11:36:11.298Z,8.45
2018-09-13T11:38:45.954Z,7.92
2018-09-13T11:41:20.330Z,8.45
2018-09-13T11:43:54.824Z,8.48
2018-09-13T11:46:29.162Z,7.70
2018-09-13T11:49:03.520Z,8.38
2018-09-13T11:51:37.907Z,7.90
2018-09-13T11:54:12.206Z,8.25
2018-09-13T11:56:46.489Z,7.85
2018-09-13T11:59:21.109Z,6.67
2018-09-13T12:01:55.430Z,7.85
2018-09-13T12:04:29.686Z,7.12
2018-09-13T12:07:04.069Z,6.60
2018-09-13T12:09:38.452Z,7.35
2018-09-13T12:12:12.711Z,6.50
2018-09-13T12:14:47.050Z,6.67
2018-09-13T12:17:21.348Z,6.20
2018-09-13T12:19:55.607Z,6.45
2018-09-13T12:22:30.026Z,6.75
2018-09-13T12:25:04.316Z,7.35
2018-09-13T12:27:38.660Z,6.85
2018-09-13T12:30:12.923Z,7.15
2018-09-13T12:32:47.246Z,7.50
2018-09-13T12:35:21.535Z,7.00
2018-09-13T12:37:55.841Z,7.25
2018-09-13T12:40:30.166Z,7.08
2018-09-13T12:43:04.498Z,7.22
2018-09-13T12:45:38.853Z,7.60
2018-09-13T12:48:13.122Z,6.85
2018-09-13T12:50:47.478Z,6.85
2018-09-13T12:53:21.786Z,6.90
2018-09-13T12:55:56.638Z,6.60
2018-09-13T12:58:30.986Z,6.78
2018-09-13T13:01:05.330Z,7.03
2018-09-13T13:03:39.684Z,7.33
2018-09-13T13:06:14.075Z,6.53
2018-09-13T13:08:48.469Z,7.60
2018-09-13T13:11:22.773Z,6.67
2018-09-13T13:13:57.114Z,7.20
2018-09-13T13:16:31.474Z,7.17
2018-09-13T13:19:05.850Z,6.67
2018-09-13T13:21:40.781Z,7.15
2018-09-13T13:24:15.085Z,6.83
2018-09-13T13:26:50.347Z,7.00
2018-09-13T13:29:24.658Z,6.47
2018-09-13T13:31:58.964Z,6.70
2018-09-13T13:34:33.303Z,6.70
2018-09-13T13:37:07.646Z,6.55
2018-09-13T13:39:41.938Z,7.40
2018-09-13T13:42:16.358Z,7.87
2018-09-13T13:44:50.682Z,7.47
2018-09-13T13:47:24.996Z,7.65
2018-09-13T13:49:59.387Z,7.75
2018-09-13T13:52:33.710Z,7.22
2018-09-13T13:55:08.047Z,7.00
2018-09-13T13:57:42.427Z,6.70
2018-09-13T14:00:16.760Z,7.17
2018-09-13T14:02:51.041Z,6.85
2018-09-13T14:05:25.379Z,6.58
2018-09-13T14:07:59.722Z,7.50
2018-09-13T14:10:34.040Z,6.72
2018-09-13T14:13:08.403Z,7.28
2018-09-13T14:15:42.758Z,7.28
2018-09-13T14:18:17.138Z,8.90
2018-09-13T14:20:51.516Z,9.10
2018-09-13T14:23:25.800Z,8.70
2018-09-13T14:26:00.094Z,8.08
2018-09-13T14:28:34.405Z,8.38
2018-09-13T14:31:08.712Z,9.43
2018-09-13T14:33:43.037Z,8.95
2018-09-13T14:36:17.437Z,9.83
2018-09-13T14:38:51.730Z,10.60
2018-09-13T14:41:26.111Z,9.25
2018-09-13T14:44:00.495Z,8.95
2018-09-13T14:46:35.472Z,9.35
2018-09-13T14:49:09.770Z,9.00
2018-09-13T14:51:44.066Z,9.38
2018-09-13T14:54:18.387Z,9.53
2018-09-13T14:56:52.743Z,9.03
2018-09-13T14:59:27.167Z,9.03
2018-09-13T15:02:01.487Z,8.85
2018-09-13T15:04:35.927Z,9.03
2018-09-13T15:07:10.287Z,8.65
2018-09-13T15:09:44.561Z,9.08
2018-09-13T15:12:18.894Z,8.78
2018-09-13T15:14:53.255Z,8.55
2018-09-13T15:17:27.610Z,8.08
2018-09-13T15:20:01.874Z,7.92
2018-09-13T15:22:36.214Z,7.75
2018-09-13T15:25:10.531Z,7.33
2018-09-13T15:27:44.894Z,7.40
2018-09-13T15:30:19.219Z,7.15
2018-09-13T15:32:53.494Z,7.30
2018-09-13T15:35:27.853Z,7.03
2018-09-13T15:38:02.182Z,7.00
2018-09-13T15:40:36.482Z,7.20
2018-09-13T15:43:10.808Z,7.10
2018-09-13T15:45:45.107Z,7.10
2018-09-13T15:48:19.357Z,6.72
2018-09-13T15:50:53.677Z,6.83
2018-09-13T15:53:28.047Z,6.95
2018-09-13T15:56:02.357Z,6.85
2018-09-13T15:58:36.754Z,7.10
2018-09-13T16:01:11.102Z,7.37
2018-09-13T16:03:45.441Z,7.85
2018-09-13T16:06:19.816Z,7.10
2018-09-13T16:08:54.167Z,6.90
2018-09-13T16:11:28.479Z,7.42
2018-09-13T16:14:02.796Z,7.00
2018-09-13T16:16:37.108Z,7.87
2018-09-13T16:19:11.405Z,6.87
2018-09-13T16:21:46.194Z,7.17
2018-09-13T16:24:20.566Z,7.42
2018-09-13T16:26:54.932Z,7.30
2018-09-13T16:29:29.349Z,7.40
2018-09-13T16:32:03.924Z,7.90
2018-09-13T16:34:38.254Z,7.08
2018-09-13T16:37:12.845Z,7.62
2018-09-13T16:39:52.431Z,8.23
2018-09-13T16:42:37.314Z,7.87
2018-09-13T16:45:12.186Z,7.65
2018-09-13T16:47:51.830Z,7.37
2018-09-13T16:50:26.126Z,7.40
2018-09-13T16:53:00.590Z,7.80
2018-09-13T16:55:34.861Z,7.87
2018-09-13T16:58:09.111Z,7.55
2018-09-13T17:00:43.526Z,8.18
2018-09-13T17:03:17.843Z,7.33
2018-09-13T17:05:52.202Z,7.37
2018-09-13T17:08:29.731Z,6.95
2018-09-13T17:11:04.037Z,7.08
2018-09-13T17:13:38.474Z,6.92
2018-09-13T17:16:12.782Z,7.00
2018-09-13T17:18:47.118Z,7.00
2018-09-13T17:21:21.413Z,6.97
2018-09-13T17:23:55.725Z,6.87
2018-09-13T17:26:30.151Z,7.00
2018-09-13T17:29:04.490Z,7.08
2018-09-13T17:31:38.898Z,7.25
2018-09-13T17:34:13.174Z,7.28
2018-09-13T17:36:48.006Z,6.72
2018-09-13T17:39:22.390Z,7.20
2018-09-13T17:41:56.730Z,6.97
2018-09-13T17:44:31.060Z,7.05
2018-09-13T17:47:05.362Z,6.90
2018-09-13T17:49:39.903Z,7.30
2018-09-13T17:52:14.262Z,6.37
2018-09-13T17:54:48.546Z,7.40
2018-09-13T17:57:22.882Z,6.78
2018-09-13T17:59:57.232Z,7.03
2018-09-13T18:02:31.502Z,7.53
2018-09-13T18:05:06.858Z,7.50
2018-09-13T18:07:41.155Z,7.50
2018-09-13T18:10:15.482Z,7.25
2018-09-13T18:12:49.847Z,7.70
2018-09-13T18:15:28.931Z,7.70
2018-09-13T18:18:03.400Z,8.23
2018-09-13T18:20:37.724Z,7.95
2018-09-13T18:23:12.102Z,8.98
2018-09-13T18:25:46.567Z,8.45
2018-09-13T18:28:20.991Z,7.70
2018-09-13T18:33:59.034Z,8.33
2018-09-13T18:36:33.409Z,8.90
2018-09-13T18:39:09.343Z,8.27
2018-09-13T18:41:43.711Z,7.97
2018-09-13T18:44:18.137Z,8.20
2018-09-13T18:46:52.482Z,7.83
2018-09-13T18:49:26.854Z,7.97
2018-09-13T18:52:01.250Z,7.50
2018-09-13T18:54:35.782Z,7.60
2018-09-13T18:57:10.226Z,7.40
2018-09-13T18:59:44.619Z,8.10
2018-09-13T19:02:19.004Z,7.60
2018-09-13T19:04:53.401Z,9.00
2018-09-13T19:07:27.742Z,8.60
2018-09-13T19:10:02.206Z,8.87
2018-09-13T19:12:36.570Z,9.33
2018-09-13T19:15:11.006Z,9.20
2018-09-13T19:17:45.389Z,9.60
2018-09-13T19:20:19.737Z,9.60
2018-09-13T19:22:54.166Z,9.27
2018-09-13T19:25:28.662Z,9.47
2018-09-13T19:28:03.055Z,9.57
2018-09-13T19:30:37.386Z,10.10
2018-09-13T19:33:11.789Z,10.53
2018-09-13T19:35:46.174Z,10.57
2018-09-13T19:38:20.525Z,10.13
2018-09-13T19:40:54.879Z,10.50
2018-09-13T19:43:29.241Z,10.00
2018-09-13T19:46:03.642Z,9.83
2018-09-13T19:48:38.034Z,10.73
2018-09-13T19:51:12.427Z,9.97
2018-09-13T19:53:46.735Z,10.23
2018-09-13T19:56:21.127Z,10.30
2018-09-13T19:58:55.638Z,10.23
2018-09-13T20:01:29.999Z,10.93
2018-09-13T20:04:04.395Z,9.97
2018-09-13T20:06:38.756Z,10.37
2018-09-13T20:09:13.276Z,10.40
2018-09-13T20:11:47.664Z,10.80
2018-09-13T20:14:22.110Z,9.97
2018-09-13T20:16:56.542Z,10.50
2018-09-13T20:19:30.935Z,10.00
2018-09-13T20:22:05.439Z,10.73
2018-09-13T20:24:39.864Z,11.20
2018-09-13T20:27:14.393Z,11.40
2018-09-13T20:29:48.740Z,9.70
2018-09-13T20:32:23.169Z,10.20
2018-09-13T20:34:57.622Z,9.87
2018-09-13T20:37:31.972Z,9.47
2018-09-13T20:40:06.495Z,9.50
2018-09-13T20:42:40.863Z,9.60
2018-09-13T20:45:15.228Z,9.47
2018-09-13T20:47:49.606Z,9.70
2018-09-13T20:50:23.980Z,9.57
2018-09-13T20:52:58.417Z,9.67
2018-09-13T20:55:32.903Z,9.23
2018-09-13T20:58:07.328Z,9.17
2018-09-13T21:00:41.737Z,8.37
2018-09-13T21:03:16.091Z,9.53
2018-09-13T21:05:50.421Z,9.63
2018-09-13T21:08:24.820Z,9.07
2018-09-13T21:10:59.184Z,8.83
2018-09-13T21:13:33.592Z,9.43
2018-09-13T21:16:08.015Z,9.53
2018-09-13T21:18:42.422Z,9.20
2018-09-13T21:21:16.788Z,9.13
2018-09-13T21:23:51.152Z,9.53
2018-09-13T21:26:25.525Z,9.60
2018-09-13T21:28:59.875Z,9.70
2018-09-13T21:31:34.272Z,8.93
2018-09-13T21:34:08.642Z,8.40
2018-09-13T21:36:43.020Z,10.43
2018-09-13T21:39:17.522Z,9.90
2018-09-13T21:41:51.895Z,9.13
2018-09-13T21:44:26.374Z,9.23
2018-09-13T21:47:00.690Z,9.07
2018-09-13T21:49:35.166Z,9.10
2018-09-13T21:52:09.517Z,9.70
2018-09-13T21:54:43.831Z,9.27
2018-09-13T21:57:18.180Z,9.03
2018-09-13T21:59:52.549Z,9.03
2018-09-13T22:02:26.925Z,9.17
2018-09-13T22:05:01.310Z,8.90
2018-09-13T22:07:36.086Z,10.17
2018-09-13T22:10:10.442Z,10.00
2018-09-13T22:12:44.786Z,9.30
2018-09-13T22:15:19.177Z,9.63
2018-09-13T22:17:53.511Z,9.00
2018-09-13T22:20:27.918Z,9.57
2018-09-13T22:23:02.290Z,9.97
2018-09-13T22:25:36.673Z,9.43
2018-09-13T22:28:11.018Z,10.17
2018-09-13T22:30:45.388Z,9.43
2018-09-13T22:33:19.758Z,9.40
2018-09-13T22:35:54.129Z,8.60
2018-09-13T22:38:28.509Z,8.73
2018-09-13T22:41:02.846Z,8.57
2018-09-13T22:43:42.441Z,9.57
2018-09-13T22:46:16.762Z,8.83
2018-09-13T22:48:51.117Z,7.67
2018-09-13T22:51:25.827Z,7.33
2018-09-13T22:54:00.162Z,7.60
2018-09-13T22:56:34.518Z,6.83
2018-09-13T22:59:08.841Z,6.77
2018-09-13T23:01:43.231Z,6.77
2018-09-13T23:04:17.563Z,6.70
2018-09-13T23:06:52.126Z,5.87
2018-09-13T23:09:26.516Z,6.00
2018-09-13T23:12:00.849Z,6.17
2018-09-13T23:14:35.186Z,7.40
2018-09-13T23:17:09.544Z,8.17
2018-09-13T23:19:43.896Z,7.07
2018-09-13T23:22:18.229Z,7.10
2018-09-13T23:24:52.571Z,7.47
2018-09-13T23:27:26.941Z,7.47
2018-09-13T23:30:01.370Z,8.13
2018-09-13T23:32:35.714Z,8.33
2018-09-13T23:35:10.078Z,8.27
2018-09-13T23:37:44.414Z,8.00
2018-09-13T23:40:19.068Z,8.10
2018-09-13T23:42:53.330Z,7.70
2018-09-13T23:45:28.102Z,7.63
2018-09-13T23:48:02.435Z,7.50
2018-09-13T23:50:36.774Z,7.03
2018-09-13T23:53:11.562Z,7.20
2018-09-13T23:55:45.940Z,6.70
2018-09-13T23:58:20.298Z,7.27
